Time;durP1;ratioP1;P1;durP2;ratioP2;P2;SDS_P1;SDS_P2;PMS_P1;PMS_P2;Temp;Humidity;BMP_temperature;BMP_pressure;BME280_temperature;BME280_humidity;BME280_pressure;Samples;Min_cycle;Max_cycle;Signal;HPM_P1;HPM_P2
2022/05/05 00:01:55;;;;;;;10.00;9.10;;;13.50;94.30;;;;;;5097953;28;20414;-45
2022/05/05 00:04:22;;;;;;;8.57;7.87;;;13.50;94.30;;;;;;5098482;28;20181;-45
2022/05/05 00:06:48;;;;;;;9.80;9.00;;;13.50;94.30;;;;;;5098457;28;20173;-45
2022/05/05 00:09:14;;;;;;;10.00;8.87;;;13.50;94.20;;;;;;5098426;28;20482;-44
2022/05/05 00:14:24;;;;;;;10.13;9.23;;;13.50;94.30;;;;;;5098575;28;20470;-45
2022/05/05 00:17:10;;;;;;;10.10;9.30;;;13.50;94.40;;;;;;5097995;28;20403;-45
2022/05/05 00:19:38;;;;;;;9.40;8.70;;;13.40;94.30;;;;;;5097326;28;20579;-44
2022/05/05 00:22:04;;;;;;;8.93;8.23;;;13.40;94.40;;;;;;5097415;28;20697;-45
2022/05/05 00:24:30;;;;;;;9.37;8.57;;;13.40;94.30;;;;;;5097471;28;20482;-45
2022/05/05 00:26:56;;;;;;;10.03;9.20;;;13.40;94.40;;;;;;5097817;28;20462;-45
2022/05/05 00:29:23;;;;;;;9.10;8.40;;;13.40;94.40;;;;;;5098015;28;20224;-45
2022/05/05 00:31:49;;;;;;;10.07;9.17;;;13.30;94.40;;;;;;5098034;28;20415;-45
2022/05/05 00:34:16;;;;;;;9.60;8.80;;;13.30;94.40;;;;;;5097815;28;20463;-45
2022/05/05 00:36:41;;;;;;;9.00;8.30;;;13.30;94.40;;;;;;5097763;28;20735;-45
2022/05/05 00:39:08;;;;;;;9.90;9.00;;;13.30;94.40;;;;;;5097449;28;20525;-45
2022/05/05 00:41:45;;;;;;;9.30;8.50;;;13.30;94.80;;;;;;5097988;28;20176;-45
2022/05/05 00:44:12;;;;;;;9.13;8.43;;;13.20;94.40;;;;;;5097707;28;20431;-46
2022/05/05 00:46:38;;;;;;;9.40;8.50;;;13.20;94.60;;;;;;5097546;28;20425;-45
2022/05/05 00:49:04;;;;;;;8.90;8.20;;;13.20;94.60;;;;;;5097240;28;20470;-45
2022/05/05 00:51:30;;;;;;;9.57;8.70;;;13.20;94.70;;;;;;5097576;28;20483;-45
2022/05/05 00:53:56;;;;;;;9.50;8.70;;;13.10;94.60;;;;;;5097499;28;20492;-45
2022/05/05 00:56:23;;;;;;;7.97;7.37;;;13.10;94.70;;;;;;5097137;28;20426;-45
2022/05/05 00:58:49;;;;;;;9.10;8.40;;;13.10;94.70;;;;;;5097577;28;20551;-45
2022/05/05 01:01:20;;;;;;;8.83;8.03;;;13.10;94.70;;;;;;5097598;28;20422;-45
2022/05/05 01:03:46;;;;;;;9.13;8.33;;;13.10;94.60;;;;;;5097162;28;20817;-45
2022/05/05 01:06:13;;;;;;;8.83;8.13;;;13.10;94.60;;;;;;5097465;28;20426;-45
2022/05/05 01:08:39;;;;;;;8.97;8.27;;;13.10;94.70;;;;;;5097504;28;20760;-45
2022/05/05 01:11:05;;;;;;;8.97;8.27;;;13.00;94.70;;;;;;5097117;28;20496;-45
2022/05/05 01:13:31;;;;;;;9.07;8.37;;;13.00;94.70;;;;;;5099402;28;20864;-45
2022/05/05 01:15:57;;;;;;;8.93;8.23;;;13.00;94.80;;;;;;5101492;28;20165;-45
2022/05/05 01:18:23;;;;;;;8.60;8.00;;;12.90;95.10;;;;;;5101443;28;20449;-45
2022/05/05 01:20:50;;;;;;;9.80;8.90;;;12.90;94.80;;;;;;5101165;28;20743;-45
2022/05/05 01:23:16;;;;;;;8.63;8.03;;;12.80;94.80;;;;;;5101013;28;20275;-45
2022/05/05 01:28:28;;;;;;;8.83;8.10;;;12.80;94.80;;;;;;5100601;28;20491;-45
2022/05/05 01:30:53;;;;;;;9.60;8.73;;;12.70;94.90;;;;;;5100291;28;20430;-45
2022/05/05 01:33:21;;;;;;;9.70;8.90;;;12.70;95.00;;;;;;5100728;28;20696;-44
2022/05/05 01:35:52;;;;;;;9.57;8.77;;;12.70;95.10;;;;;;5100894;28;20225;-45
2022/05/05 01:38:37;;;;;;;9.20;8.40;;;12.60;95.40;;;;;;5101182;28;20414;-45
2022/05/05 01:41:09;;;;;;;8.97;8.17;;;12.50;95.10;;;;;;5099985;28;20895;-45
2022/05/05 01:43:35;;;;;;;9.33;8.53;;;12.50;95.10;;;;;;5099559;28;20497;-45
2022/05/05 01:46:01;;;;;;;8.67;7.97;;;12.50;95.10;;;;;;5099748;28;20435;-45
2022/05/05 01:48:27;;;;;;;9.50;8.60;;;12.40;95.40;;;;;;5099399;28;20414;-45
2022/05/05 01:50:53;;;;;;;10.33;9.30;;;12.40;95.10;;;;;;5099314;28;20435;-45
2022/05/05 01:53:19;;;;;;;9.07;8.33;;;12.30;95.10;;;;;;5099352;28;20703;-45
2022/05/05 01:55:44;;;;;;;8.93;8.13;;;12.30;95.20;;;;;;5099518;28;20189;-45
2022/05/05 01:58:10;;;;;;;8.50;7.80;;;12.20;95.20;;;;;;5100496;28;20255;-44
2022/05/05 02:00:36;;;;;;;8.83;8.07;;;12.20;95.30;;;;;;5100840;28;20312;-45
2022/05/05 02:03:01;;;;;;;8.47;7.70;;;12.10;95.30;;;;;;5100730;28;20184;-45
2022/05/05 02:05:27;;;;;;;8.57;7.73;;;12.10;95.20;;;;;;5100741;28;20189;-45
2022/05/05 02:07:53;;;;;;;9.60;8.80;;;12.10;95.20;;;;;;5100631;28;20465;-45
2022/05/05 02:10:20;;;;;;;9.40;8.60;;;12.10;95.30;;;;;;5099372;28;20468;-45
2022/05/05 02:12:46;;;;;;;9.27;8.50;;;12.10;95.40;;;;;;5100718;28;20451;-45
2022/05/05 02:15:13;;;;;;;10.10;9.20;;;12.00;95.40;;;;;;5100361;28;20722;-45
2022/05/05 02:17:41;;;;;;;9.40;8.70;;;12.00;95.60;;;;;;5100699;28;20423;-45
2022/05/05 02:20:08;;;;;;;10.23;9.33;;;12.00;95.80;;;;;;5100390;28;20437;-45
2022/05/05 02:22:34;;;;;;;10.13;9.23;;;12.00;95.90;;;;;;5100570;28;20434;-45
2022/05/05 02:25:00;;;;;;;11.00;10.10;;;11.90;95.80;;;;;;5098721;28;20435;-45
2022/05/05 02:27:25;;;;;;;10.70;9.60;;;11.90;95.90;;;;;;5099817;28;20474;-45
2022/05/05 02:29:52;;;;;;;10.50;9.50;;;11.90;96.00;;;;;;5099849;28;20219;-45
2022/05/05 02:32:18;;;;;;;9.60;8.60;;;11.90;96.10;;;;;;5099993;28;20516;-45
2022/05/05 02:34:44;;;;;;;10.90;9.90;;;11.90;96.10;;;;;;5099704;28;20453;-45
2022/05/05 02:39:54;;;;;;;8.83;8.03;;;11.80;96.10;;;;;;5099577;28;20437;-45
2022/05/05 02:42:22;;;;;;;10.23;9.20;;;11.80;96.20;;;;;;5099129;28;20415;-45
2022/05/05 02:44:48;;;;;;;9.83;9.03;;;11.80;96.20;;;;;;5098262;28;20199;-47
2022/05/05 02:47:14;;;;;;;9.57;8.77;;;11.80;96.20;;;;;;5098659;28;20692;-45
2022/05/05 02:49:39;;;;;;;9.60;8.60;;;11.80;96.20;;;;;;5098989;28;20618;-45
2022/05/05 02:52:06;;;;;;;10.63;9.40;;;11.80;96.20;;;;;;5098982;28;20180;-44
2022/05/05 02:54:47;;;;;;;10.23;9.37;;;11.70;96.10;;;;;;5099437;28;20273;-45
2022/05/05 02:57:13;;;;;;;9.70;9.00;;;11.70;96.10;;;;;;5099519;28;20422;-45
2022/05/05 02:59:39;;;;;;;9.70;8.90;;;11.70;96.10;;;;;;5099368;28;20438;-45
2022/05/05 03:02:05;;;;;;;9.63;8.87;;;11.70;96.10;;;;;;5099328;28;20468;-45
2022/05/05 03:04:30;;;;;;;9.10;8.40;;;11.70;96.40;;;;;;5099397;28;20194;-45
2022/05/05 03:06:56;;;;;;;9.57;8.73;;;11.70;96.10;;;;;;5099221;28;20181;-45
2022/05/05 03:09:21;;;;;;;10.60;9.70;;;11.70;96.00;;;;;;5099222;28;20335;-45
2022/05/05 03:11:47;;;;;;;9.77;8.87;;;11.70;96.10;;;;;;5098923;28;20173;-45
2022/05/05 03:14:13;;;;;;;10.10;9.20;;;11.70;96.50;;;;;;5098707;28;20185;-45
2022/05/05 03:16:39;;;;;;;11.07;10.07;;;11.70;96.20;;;;;;5099266;28;20215;-45
2022/05/05 03:19:05;;;;;;;11.03;10.13;;;11.70;96.20;;;;;;5099620;28;20466;-45
2022/05/05 03:21:30;;;;;;;9.63;8.83;;;11.70;96.30;;;;;;5098170;28;20177;-45
2022/05/05 03:23:56;;;;;;;11.07;10.13;;;11.70;96.40;;;;;;5098803;28;20220;-44
2022/05/05 03:26:21;;;;;;;9.63;8.93;;;11.70;96.50;;;;;;5098707;28;20238;-44
2022/05/05 03:28:47;;;;;;;10.70;9.80;;;11.70;96.50;;;;;;5098691;28;20253;-44
2022/05/05 03:31:12;;;;;;;9.30;8.47;;;11.70;96.60;;;;;;5099103;28;20615;-45
2022/05/05 03:33:38;;;;;;;10.30;9.40;;;11.70;96.60;;;;;;5098494;28;20195;-44
2022/05/05 03:36:04;;;;;;;8.87;8.00;;;11.70;96.60;;;;;;5098729;28;20458;-45
2022/05/05 03:38:30;;;;;;;9.70;8.90;;;11.70;96.50;;;;;;5098785;28;20192;-45
2022/05/05 03:40:56;;;;;;;9.63;8.83;;;11.70;96.50;;;;;;5080544;28;20411;-45
2022/05/05 03:43:21;;;;;;;9.80;9.00;;;11.70;96.60;;;;;;5098687;28;20173;-45
2022/05/05 03:45:47;;;;;;;10.70;9.70;;;11.80;96.60;;;;;;5098412;28;20177;-44
2022/05/05 03:48:13;;;;;;;11.10;10.00;;;11.80;96.70;;;;;;5098621;28;20204;-45
2022/05/05 03:50:39;;;;;;;10.20;9.40;;;11.80;96.70;;;;;;5098672;28;20220;-45
2022/05/05 03:53:05;;;;;;;11.40;10.40;;;11.80;96.90;;;;;;5097791;28;20188;-45
2022/05/05 03:55:31;;;;;;;13.20;9.87;;;11.80;97.00;;;;;;5098319;28;20199;-45
2022/05/05 03:57:56;;;;;;;11.57;10.57;;;11.90;97.10;;;;;;5097455;28;20422;-45
2022/05/05 04:00:23;;;;;;;11.57;10.43;;;11.90;97.10;;;;;;5097202;28;20192;-45
2022/05/05 04:03:30;;;;;;;11.43;10.53;;;11.80;97.10;;;;;;5098301;28;20172;-44
2022/05/05 04:05:35;;;;;;;11.37;10.37;;;11.90;97.20;;;;;;5097670;28;20443;-45
2022/05/05 04:08:05;;;;;;;10.60;9.67;;;11.90;97.30;;;;;;5096758;28;20779;-44
2022/05/05 04:10:31;;;;;;;10.40;9.60;;;11.90;97.30;;;;;;5096512;28;20576;-44
2022/05/05 04:12:57;;;;;;;10.10;9.30;;;11.90;97.20;;;;;;5095429;28;20411;-45
2022/05/05 04:15:23;;;;;;;10.77;9.97;;;11.90;97.20;;;;;;5096363;28;20430;-44
2022/05/05 04:17:49;;;;;;;11.10;10.10;;;11.90;97.10;;;;;;5095312;28;20407;-45
2022/05/05 04:20:15;;;;;;;10.67;9.77;;;11.90;97.00;;;;;;5095541;28;20863;-45
2022/05/05 04:22:41;;;;;;;12.07;11.00;;;12.00;97.00;;;;;;5094974;28;20193;-45
2022/05/05 04:25:07;;;;;;;12.00;11.00;;;12.00;97.00;;;;;;5095647;28;20630;-45
2022/05/05 04:27:34;;;;;;;9.57;8.77;;;12.00;97.00;;;;;;5096051;28;20478;-44
2022/05/05 04:29:59;;;;;;;10.40;9.50;;;12.00;97.00;;;;;;5096638;28;20532;-45
2022/05/05 04:32:25;;;;;;;11.20;10.20;;;12.10;97.00;;;;;;5096379;28;20829;-44
2022/05/05 04:34:51;;;;;;;10.80;9.90;;;12.10;96.90;;;;;;5094422;28;20195;-44
2022/05/05 04:37:16;;;;;;;10.93;9.93;;;12.20;96.90;;;;;;5095497;28;20184;-45
2022/05/05 04:39:42;;;;;;;10.30;9.40;;;12.20;96.90;;;;;;5096062;28;20213;-45
2022/05/05 04:42:09;;;;;;;11.90;10.80;;;12.20;96.90;;;;;;5096105;28;20184;-45
2022/05/05 04:44:35;;;;;;;10.07;9.17;;;12.20;96.90;;;;;;5094348;28;20189;-45
2022/05/05 04:47:01;;;;;;;9.43;8.73;;;12.30;96.90;;;;;;5095537;28;20690;-45
2022/05/05 04:49:27;;;;;;;9.87;8.97;;;12.30;96.80;;;;;;5094609;28;20212;-45
2022/05/05 04:51:52;;;;;;;10.50;9.50;;;12.40;96.70;;;;;;5094300;28;20220;-45
2022/05/05 04:54:18;;;;;;;11.40;10.43;;;12.40;96.70;;;;;;5094537;28;20204;-45
2022/05/05 04:56:44;;;;;;;10.33;9.53;;;12.50;96.70;;;;;;5094997;28;20284;-45
2022/05/05 04:59:09;;;;;;;9.70;8.90;;;12.60;96.70;;;;;;5093020;28;20184;-46
2022/05/05 05:01:35;;;;;;;10.40;9.50;;;12.60;96.70;;;;;;5093681;28;20181;-45
2022/05/05 05:04:02;;;;;;;11.87;10.87;;;12.60;96.70;;;;;;5093906;28;20246;-45
2022/05/05 05:06:28;;;;;;;11.40;10.40;;;12.70;96.70;;;;;;5094084;28;20533;-45
2022/05/05 05:08:55;;;;;;;12.13;11.07;;;12.70;96.70;;;;;;5094422;28;20577;-45
2022/05/05 05:11:21;;;;;;;11.07;10.00;;;12.80;96.60;;;;;;5092815;28;20576;-45
2022/05/05 05:13:47;;;;;;;10.10;9.30;;;12.90;96.50;;;;;;5090112;28;20813;-46
2022/05/05 05:16:13;;;;;;;12.30;11.20;;;12.90;96.30;;;;;;5089799;28;20518;-45
2022/05/05 05:18:39;;;;;;;11.00;10.10;;;13.00;96.30;;;;;;5089797;28;20980;-46
2022/05/05 05:21:04;;;;;;;10.30;9.50;;;13.10;96.10;;;;;;5091045;28;20177;-45
2022/05/05 05:23:30;;;;;;;10.63;9.83;;;13.20;95.90;;;;;;5089968;28;20713;-45
2022/05/05 05:25:56;;;;;;;10.30;9.50;;;13.20;95.80;;;;;;5091354;28;20661;-45
2022/05/05 05:28:21;;;;;;;10.70;9.70;;;13.30;95.80;;;;;;5093061;28;20177;-45
2022/05/05 05:30:47;;;;;;;10.60;9.70;;;13.40;95.70;;;;;;5092402;28;20277;-45
2022/05/05 05:33:13;;;;;;;10.60;9.80;;;13.50;95.60;;;;;;5092949;28;20180;-45
2022/05/05 05:35:39;;;;;;;11.63;10.63;;;13.70;95.60;;;;;;5093387;28;20250;-45
2022/05/05 05:38:04;;;;;;;12.57;11.30;;;13.80;95.30;;;;;;5094643;28;20169;-45
2022/05/05 05:40:30;;;;;;;11.30;10.30;;;14.00;95.00;;;;;;5094197;28;20185;-45
2022/05/05 05:42:56;;;;;;;11.40;10.20;;;14.20;94.80;;;;;;5093840;28;20189;-44
2022/05/05 05:45:22;;;;;;;10.73;9.73;;;14.30;94.40;;;;;;5092050;28;20483;-45
2022/05/05 05:47:47;;;;;;;10.63;9.73;;;14.50;94.10;;;;;;5092470;28;20192;-45
2022/05/05 05:50:13;;;;;;;11.80;10.80;;;14.70;93.80;;;;;;5094428;28;20208;-45
2022/05/05 05:52:39;;;;;;;10.27;9.47;;;14.90;93.50;;;;;;5094847;28;20549;-45
2022/05/05 05:55:05;;;;;;;10.03;9.17;;;15.00;93.30;;;;;;5093177;28;20169;-45
2022/05/05 05:57:30;;;;;;;10.83;9.90;;;15.30;93.20;;;;;;5092138;28;20173;-45
2022/05/05 05:59:56;;;;;;;10.40;9.50;;;15.40;92.70;;;;;;5097438;28;20541;-46
2022/05/05 06:05:07;;;;;;;10.90;9.80;;;15.80;92.10;;;;;;5097405;28;20242;-46
2022/05/05 06:07:32;;;;;;;9.63;8.83;;;16.10;91.90;;;;;;5096103;28;20773;-45
2022/05/05 06:09:58;;;;;;;10.27;9.30;;;16.30;91.60;;;;;;5097479;28;20470;-45
2022/05/05 06:12:24;;;;;;;10.33;9.50;;;16.50;91.20;;;;;;5096671;28;20203;-45
2022/05/05 06:14:49;;;;;;;10.73;9.73;;;16.70;90.60;;;;;;5098961;28;20212;-45
2022/05/05 06:17:15;;;;;;;9.50;8.80;;;17.00;90.30;;;;;;5097293;28;20179;-45
2022/05/05 06:19:43;;;;;;;10.00;9.10;;;17.10;89.90;;;;;;5097411;28;20183;-45
2022/05/05 06:22:09;;;;;;;9.57;8.77;;;17.10;89.20;;;;;;5096874;28;20195;-45
2022/05/05 06:24:34;;;;;;;9.43;8.47;;;17.20;88.90;;;;;;5095493;28;20416;-45
2022/05/05 06:27:00;;;;;;;10.77;9.83;;;17.20;88.50;;;;;;5095449;28;20471;-45
2022/05/05 06:29:25;;;;;;;9.40;8.60;;;17.10;88.10;;;;;;5095865;28;20243;-45
2022/05/05 06:31:51;;;;;;;10.30;9.50;;;17.10;87.90;;;;;;5096424;28;20180;-46
2022/05/05 06:34:17;;;;;;;9.70;8.90;;;17.10;87.70;;;;;;5097673;28;20272;-45
2022/05/05 06:36:43;;;;;;;10.60;9.67;;;17.10;87.60;;;;;;5097280;28;20540;-45
2022/05/05 06:39:08;;;;;;;9.20;8.40;;;17.00;87.40;;;;;;5096425;28;20188;-46
2022/05/05 06:41:34;;;;;;;8.87;8.17;;;16.90;87.20;;;;;;5097512;28;20544;-45
2022/05/05 06:44:00;;;;;;;8.50;7.80;;;16.90;87.50;;;;;;5096787;28;20246;-45
2022/05/05 06:46:27;;;;;;;8.00;7.30;;;16.80;87.60;;;;;;5096779;28;20473;-45
2022/05/05 06:48:53;;;;;;;7.57;6.97;;;16.80;87.60;;;;;;5097440;28;20219;-45
2022/05/05 06:51:19;;;;;;;8.50;7.80;;;16.70;87.50;;;;;;5097154;28;20430;-46
2022/05/05 06:53:44;;;;;;;9.67;8.03;;;16.70;87.30;;;;;;5095850;28;20573;-45
2022/05/05 06:56:10;;;;;;;9.03;6.83;;;16.70;87.40;;;;;;5095971;28;20165;-46
2022/05/05 06:58:36;;;;;;;8.93;8.13;;;16.60;87.40;;;;;;5097383;28;20197;-45
2022/05/05 07:03:46;;;;;;;9.10;7.90;;;16.50;87.40;;;;;;5097942;28;20249;-42
2022/05/05 07:06:11;;;;;;;7.30;6.40;;;16.50;87.60;;;;;;5097904;28;20431;-44
2022/05/05 07:11:22;;;;;;;4.47;4.07;;;16.50;88.50;;;;;;5096580;28;20267;-46
2022/05/05 07:13:48;;;;;;;4.33;3.93;;;16.70;88.80;;;;;;5097972;28;20426;-43
2022/05/05 07:16:14;;;;;;;4.33;3.77;;;16.90;88.40;;;;;;5096088;28;20771;-44
2022/05/05 07:18:40;;;;;;;4.63;4.03;;;17.10;87.90;;;;;;5095844;28;20430;-42
2022/05/05 07:21:06;;;;;;;4.63;4.30;;;17.40;87.20;;;;;;5094648;28;20169;-47
2022/05/05 07:23:32;;;;;;;4.47;4.17;;;17.60;86.30;;;;;;5094375;28;20176;-45
2022/05/05 07:25:57;;;;;;;4.57;3.77;;;17.80;85.60;;;;;;5094694;28;20423;-42
2022/05/05 07:28:23;;;;;;;4.97;4.50;;;17.90;84.90;;;;;;5095202;28;20574;-46
2022/05/05 07:30:51;;;;;;;5.33;4.80;;;18.10;84.20;;;;;;5093992;28;20489;-44
2022/05/05 07:33:16;;;;;;;5.00;4.57;;;18.30;83.60;;;;;;5095510;28;20423;-43
2022/05/05 07:35:47;;;;;;;5.03;4.63;;;18.40;83.10;;;;;;5095279;28;20438;-43
2022/05/05 07:38:13;;;;;;;5.47;4.87;;;18.40;82.60;;;;;;5093692;28;20180;-44
2022/05/05 07:40:38;;;;;;;3.90;3.60;;;18.50;82.20;;;;;;5094633;28;20499;-42
2022/05/05 07:43:04;;;;;;;4.63;4.23;;;18.50;81.70;;;;;;5097161;28;20193;-43
2022/05/05 07:45:30;;;;;;;4.43;4.00;;;18.60;82.00;;;;;;5096932;28;20478;-49
2022/05/05 07:48:00;;;;;;;4.90;4.50;;;18.70;81.00;;;;;;5096458;28;20191;-43
2022/05/05 07:50:25;;;;;;;6.07;5.50;;;18.70;80.60;;;;;;5095236;28;20505;-42
2022/05/05 07:52:51;;;;;;;5.60;5.10;;;18.80;80.30;;;;;;5092659;28;20452;-44
2022/05/05 07:55:16;;;;;;;5.60;5.20;;;18.90;80.00;;;;;;5093136;28;20259;-46
2022/05/05 07:57:48;;;;;;;5.00;4.60;;;19.00;79.50;;;;;;5092260;28;20282;-43
2022/05/05 08:00:14;;;;;;;5.63;5.20;;;19.20;79.00;;;;;;5093012;28;20242;-43
2022/05/05 08:02:40;;;;;;;5.47;4.97;;;19.40;78.50;;;;;;5093863;28;20438;-45
2022/05/05 08:05:09;;;;;;;6.37;5.87;;;19.60;77.80;;;;;;5093505;28;20450;-45
2022/05/05 08:07:34;;;;;;;5.60;5.10;;;19.80;76.90;;;;;;5092627;28;20433;-42
2022/05/05 08:10:00;;;;;;;7.20;6.57;;;20.10;76.10;;;;;;5095382;28;20461;-45
2022/05/05 08:12:27;;;;;;;6.60;6.10;;;20.50;75.00;;;;;;5092991;28;20568;-43
2022/05/05 08:14:52;;;;;;;7.00;6.50;;;20.90;74.00;;;;;;5093217;28;20833;-44
2022/05/05 08:17:18;;;;;;;7.27;6.63;;;21.20;72.60;;;;;;5095319;28;20431;-46
2022/05/05 08:19:44;;;;;;;7.07;6.50;;;21.50;71.40;;;;;;5097110;28;20286;-45
2022/05/05 08:22:09;;;;;;;7.40;6.70;;;21.70;70.00;;;;;;5094638;28;20451;-46
2022/05/05 08:30:08;;;;;;;6.70;6.10;;;21.80;67.40;;;;;;5073408;28;20481;-44
2022/05/05 08:32:34;;;;;;;7.07;6.57;;;21.70;66.90;;;;;;5093171;28;20428;-43
2022/05/05 08:35:00;;;;;;;7.07;6.57;;;21.60;66.80;;;;;;5093768;28;20445;-43
2022/05/05 08:37:25;;;;;;;8.07;7.40;;;21.60;66.50;;;;;;5094175;28;20184;-44
2022/05/05 08:39:51;;;;;;;7.70;6.20;;;21.60;66.30;;;;;;5093500;28;20827;-44
2022/05/05 08:42:17;;;;;;;6.97;6.37;;;21.70;66.20;;;;;;5095713;28;20177;-48
2022/05/05 08:44:42;;;;;;;8.07;7.43;;;21.90;65.50;;;;;;5096647;28;20190;-48
2022/05/05 08:47:10;;;;;;;6.80;6.00;;;22.00;64.60;;;;;;5094369;28;20172;-44
2022/05/05 08:49:39;;;;;;;7.77;7.13;;;21.90;64.20;;;;;;5095270;28;20233;-43
2022/05/05 08:52:08;;;;;;;6.93;6.33;;;22.00;63.90;;;;;;5095794;28;20504;-45
2022/05/05 08:54:35;;;;;;;9.00;6.60;;;21.90;63.60;;;;;;5094404;28;20419;-44
2022/05/05 08:57:00;;;;;;;6.80;6.13;;;21.90;63.90;;;;;;5095162;28;20852;-44
2022/05/05 08:59:27;;;;;;;7.50;6.80;;;21.90;63.70;;;;;;5094470;28;20587;-44
2022/05/05 09:01:52;;;;;;;7.13;6.30;;;21.90;63.70;;;;;;5093307;28;20196;-45
2022/05/05 09:04:21;;;;;;;7.37;6.77;;;21.90;63.80;;;;;;5092860;28;20431;-45
2022/05/05 09:06:51;;;;;;;12.40;6.23;;;21.90;63.70;;;;;;5094125;28;20181;-45
2022/05/05 09:09:34;;;;;;;10.00;8.03;;;21.90;63.70;;;;;;5093334;28;20489;-46
2022/05/05 09:12:06;;;;;;;6.80;6.20;;;22.00;63.20;;;;;;5096439;28;20939;-47
2022/05/05 09:14:56;;;;;;;8.63;6.90;;;22.00;63.00;;;;;;5095436;28;20428;-44
2022/05/05 09:17:27;;;;;;;7.20;6.50;;;21.90;62.90;;;;;;5086891;28;20448;-46
2022/05/05 09:19:55;;;;;;;8.10;7.40;;;21.90;62.70;;;;;;5093630;28;20762;-46
2022/05/05 09:22:23;;;;;;;7.50;6.70;;;21.90;62.60;;;;;;5093672;28;20429;-44
2022/05/05 09:24:51;;;;;;;8.70;7.90;;;21.80;62.60;;;;;;5094904;28;20414;-45
2022/05/05 09:27:27;;;;;;;8.13;7.40;;;21.70;62.60;;;;;;5092528;28;20843;-44
2022/05/05 09:30:01;;;;;;;7.90;7.30;;;21.60;63.00;;;;;;5092017;28;20836;-42
2022/05/05 09:32:27;;;;;;;8.37;7.57;;;21.50;63.20;;;;;;5093249;28;20836;-44
2022/05/05 09:34:57;;;;;;;10.43;8.20;;;21.50;63.60;;;;;;5096085;28;20410;-44
2022/05/05 09:37:23;;;;;;;8.43;6.97;;;21.40;63.50;;;;;;5096350;28;20613;-45
2022/05/05 09:39:54;;;;;;;7.90;7.20;;;21.40;63.70;;;;;;5095881;28;20803;-47
2022/05/05 09:42:36;;;;;;;8.40;7.67;;;21.40;63.70;;;;;;5096204;28;20189;-45
2022/05/05 09:45:31;;;;;;;8.43;7.50;;;21.30;63.80;;;;;;5095575;28;20459;-45
2022/05/05 09:47:59;;;;;;;9.77;8.97;;;21.20;63.80;;;;;;5097474;28;20461;-43
2022/05/05 09:50:27;;;;;;;10.30;9.27;;;21.10;64.00;;;;;;5097661;28;20453;-42
2022/05/05 09:58:26;;;;;;;10.23;9.43;;;20.60;64.50;;;;;;5095081;28;20518;-48
2022/05/05 10:00:58;;;;;;;11.13;10.00;;;20.50;65.00;;;;;;5096689;28;20438;-45
2022/05/05 10:06:28;;;;;;;12.57;11.37;;;20.30;65.50;;;;;;5098072;28;20445;-45
2022/05/05 10:08:57;;;;;;;12.50;11.33;;;20.20;65.90;;;;;;5098192;28;20428;-48
2022/05/05 10:11:24;;;;;;;11.93;10.77;;;20.10;66.40;;;;;;5099259;28;20399;-46
2022/05/05 10:13:51;;;;;;;10.50;9.60;;;19.90;66.80;;;;;;5097213;28;20440;-45
2022/05/05 10:16:19;;;;;;;15.23;11.43;;;19.80;67.40;;;;;;5098009;28;20427;-44
2022/05/05 10:18:45;;;;;;;12.47;11.37;;;19.70;67.90;;;;;;5078987;28;20442;-45
2022/05/05 10:21:20;;;;;;;11.30;10.30;;;19.50;68.50;;;;;;5094912;28;20408;-46
2022/05/05 10:24:05;;;;;;;11.70;10.60;;;19.40;69.40;;;;;;5097394;28;20200;-49
2022/05/05 10:26:31;;;;;;;12.60;11.40;;;19.20;70.10;;;;;;5097620;28;21003;-44
2022/05/05 10:28:57;;;;;;;14.57;13.27;;;19.20;70.60;;;;;;5096979;28;20608;-43
2022/05/05 10:31:33;;;;;;;11.63;10.53;;;19.10;70.90;;;;;;5095583;28;20453;-43
2022/05/05 10:34:07;;;;;;;11.97;10.87;;;19.10;71.50;;;;;;5095171;28;20170;-43
2022/05/05 10:36:35;;;;;;;13.13;11.73;;;19.20;72.00;;;;;;5094901;28;20687;-46
2022/05/05 10:39:23;;;;;;;12.57;11.47;;;19.20;72.00;;;;;;5096659;28;20454;-42
2022/05/05 10:41:51;;;;;;;13.67;12.33;;;19.30;72.10;;;;;;5097972;28;20655;-45
2022/05/05 10:44:16;;;;;;;13.90;12.60;;;19.40;72.10;;;;;;5094756;28;20427;-43
2022/05/05 10:47:03;;;;;;;13.17;12.07;;;19.40;71.90;;;;;;5075940;28;20478;-44
2022/05/05 10:49:39;;;;;;;14.07;12.80;;;19.50;72.00;;;;;;5077052;28;20252;-42
2022/05/05 10:52:11;;;;;;;15.40;14.00;;;19.50;71.90;;;;;;5076488;28;20407;-42
2022/05/05 10:54:36;;;;;;;16.20;14.63;;;19.40;72.20;;;;;;5076632;28;20419;-45
2022/05/05 10:57:27;;;;;;;15.50;14.10;;;19.40;72.80;;;;;;5077608;28;20849;-45
2022/05/05 11:00:11;;;;;;;16.17;14.77;;;19.30;73.10;;;;;;5076684;28;20273;-43
2022/05/05 11:02:58;;;;;;;18.03;16.33;;;19.20;73.40;;;;;;5077238;28;20419;-45
2022/05/05 11:05:29;;;;;;;17.63;16.13;;;19.10;73.90;;;;;;5076486;28;20430;-44
2022/05/05 11:08:14;;;;;;;18.57;17.10;;;19.00;74.50;;;;;;5087715;28;20465;-44
2022/05/05 11:13:40;;;;;;;19.60;17.77;;;18.80;76.00;;;;;;5090426;28;20430;-44
2022/05/05 11:22:19;;;;;;;16.40;15.17;;;18.60;78.30;;;;;;5086314;28;20434;-47
2022/05/05 11:24:46;;;;;;;15.93;14.47;;;18.50;78.60;;;;;;5075227;28;20485;-46
2022/05/05 11:27:18;;;;;;;16.30;14.70;;;18.50;79.10;;;;;;5091559;28;20528;-46
2022/05/05 11:29:51;;;;;;;16.07;14.80;;;18.50;79.30;;;;;;5076179;28;20561;-44
2022/05/05 11:32:17;;;;;;;22.37;20.17;;;18.50;79.70;;;;;;5076162;28;20716;-44
2022/05/05 11:34:45;;;;;;;39.40;30.17;;;18.50;80.10;;;;;;5074117;28;20841;-44
2022/05/05 11:37:11;;;;;;;42.67;34.17;;;18.60;81.10;;;;;;5074362;28;20420;-50
2022/05/05 11:39:38;;;;;;;41.50;30.00;;;18.60;80.40;;;;;;5090783;28;20688;-43
2022/05/05 11:42:11;;;;;;;29.13;24.80;;;18.70;81.40;;;;;;5076009;28;20756;-46
2022/05/05 11:44:39;;;;;;;22.20;19.80;;;18.90;80.80;;;;;;5073749;28;20424;-43
2022/05/05 11:47:17;;;;;;;19.67;17.67;;;19.10;80.70;;;;;;5074283;28;20828;-42
2022/05/05 11:49:47;;;;;;;16.80;15.10;;;19.40;80.40;;;;;;5075477;28;20501;-42
2022/05/05 11:52:20;;;;;;;16.20;14.73;;;19.70;80.00;;;;;;5074308;28;20413;-43
2022/05/05 11:54:51;;;;;;;14.60;13.20;;;20.00;79.40;;;;;;5073349;28;20834;-43
2022/05/05 11:57:38;;;;;;;13.57;12.47;;;20.30;78.70;;;;;;5072880;28;20410;-42
2022/05/05 12:02:52;;;;;;;11.40;10.33;;;21.00;76.70;;;;;;5073130;28;20843;-42
2022/05/05 12:05:18;;;;;;;11.03;9.93;;;21.40;74.20;;;;;;5071983;28;20424;-41
2022/05/05 12:07:46;;;;;;;11.20;10.20;;;21.90;72.70;;;;;;5072606;28;20269;-44
2022/05/05 12:10:13;;;;;;;11.33;10.40;;;22.40;71.20;;;;;;5088524;28;20503;-41
2022/05/05 12:12:46;;;;;;;11.50;10.60;;;23.00;69.50;;;;;;5071421;28;20694;-44
2022/05/05 12:15:13;;;;;;;11.47;10.37;;;23.60;67.70;;;;;;5089895;28;20422;-44
2022/05/05 12:17:50;;;;;;;12.30;11.13;;;24.30;65.60;;;;;;5072277;28;20456;-43
2022/05/05 12:20:17;;;;;;;12.10;11.00;;;24.90;63.40;;;;;;5073264;28;20419;-42
2022/05/05 12:22:44;;;;;;;12.07;11.07;;;25.40;60.90;;;;;;5073990;28;20424;-44
2022/05/05 12:25:17;;;;;;;14.13;12.77;;;26.10;59.80;;;;;;5074472;28;20433;-42
2022/05/05 12:27:46;;;;;;;13.33;12.10;;;26.50;58.40;;;;;;5075709;28;20474;-44
2022/05/05 12:30:12;;;;;;;12.30;11.20;;;26.80;57.50;;;;;;5075508;28;20742;-42
2022/05/05 12:32:51;;;;;;;11.37;10.27;;;27.70;56.50;;;;;;5091673;28;20568;-41
2022/05/05 12:35:31;;;;;;;12.10;11.10;;;29.20;54.00;;;;;;5075399;28;20472;-46
2022/05/05 12:37:58;;;;;;;11.50;10.53;;;30.00;50.20;;;;;;5075430;28;20857;-44
2022/05/05 12:40:23;;;;;;;13.70;9.30;;;30.10;48.00;;;;;;5074592;28;20466;-45
2022/05/05 12:42:49;;;;;;;11.57;10.40;;;30.00;46.70;;;;;;5075402;28;20449;-41
2022/05/05 12:45:17;;;;;;;12.10;11.10;;;29.60;46.80;;;;;;5074889;28;20563;-46
2022/05/05 12:47:47;;;;;;;11.37;10.53;;;29.00;47.40;;;;;;5074631;28;20258;-45
2022/05/05 12:50:34;;;;;;;10.90;10.00;;;28.30;48.10;;;;;;5073833;28;20778;-44
2022/05/05 13:01:42;;;;;;;12.57;11.67;;;26.20;51.30;;;;;;5075935;28;20414;-46
2022/05/05 13:04:10;;;;;;;13.20;12.20;;;26.00;51.30;;;;;;5074191;28;20892;-47
2022/05/05 13:06:37;;;;;;;14.77;12.83;;;25.90;51.70;;;;;;5074523;28;20428;-43
2022/05/05 13:09:08;;;;;;;15.13;13.73;;;26.10;51.90;;;;;;5075389;28;20477;-44
2022/05/05 13:11:34;;;;;;;12.50;11.47;;;26.50;51.30;;;;;;5079649;28;20410;-44
2022/05/05 13:14:02;;;;;;;13.57;12.47;;;27.00;50.60;;;;;;5078788;28;20432;-43
2022/05/05 13:16:28;;;;;;;13.67;12.63;;;27.30;50.00;;;;;;5079918;28;20498;-46
2022/05/05 13:18:54;;;;;;;13.20;12.20;;;27.50;49.50;;;;;;5079503;28;20593;-44
2022/05/05 13:21:19;;;;;;;12.47;11.37;;;27.50;49.40;;;;;;5079464;28;20412;-45
2022/05/05 13:23:45;;;;;;;10.50;9.60;;;28.00;48.70;;;;;;5079031;28;20181;-41
2022/05/05 13:26:11;;;;;;;10.90;10.00;;;28.50;48.00;;;;;;5076741;28;20212;-43
2022/05/05 13:28:37;;;;;;;11.93;11.00;;;28.90;47.10;;;;;;5093767;28;20185;-48
2022/05/05 13:31:03;;;;;;;10.63;9.73;;;29.60;46.40;;;;;;5078634;28;20474;-43
2022/05/05 13:33:28;;;;;;;10.37;9.57;;;30.00;45.30;;;;;;5077359;28;20451;-42